sensor_id;sensor_type;location;lat;lon;timestamp;P1;durP1;ratioP1;P2;durP2;ratioP2
7460;SDS011;6757;52.258;12.840;2023-08-06T00:01:33;3.42;;;1.90;;
7460;SDS011;6757;52.258;12.840;2023-08-06T00:04:00;5.47;;;2.25;;
7460;SDS011;6757;52.258;12.840;2023-08-06T00:06:28;4.75;;;2.30;;
7460;SDS011;6757;52.258;12.840;2023-08-06T00:08:55;5.30;;;2.38;;
7460;SDS011;6757;52.258;12.840;2023-08-06T00:11:22;5.10;;;2.08;;
7460;SDS011;6757;52.258;12.840;2023-08-06T00:13:49;3.80;;;1.98;;
7460;SDS011;6757;52.258;12.840;2023-08-06T00:16:16;4.82;;;2.50;;
7460;SDS011;6757;52.258;12.840;2023-08-06T00:18:43;5.32;;;2.55;;
7460;SDS011;6757;52.258;12.840;2023-08-06T00:21:10;3.92;;;2.10;;
7460;SDS011;6757;52.258;12.840;2023-08-06T00:23:39;4.20;;;2.53;;
7460;SDS011;6757;52.258;12.840;2023-08-06T00:26:06;5.60;;;2.40;;
7460;SDS011;6757;52.258;12.840;2023-08-06T00:28:33;2.72;;;2.08;;
7460;SDS011;6757;52.258;12.840;2023-08-06T00:31:00;6.05;;;2.42;;
7460;SDS011;6757;52.258;12.840;2023-08-06T00:33:27;4.95;;;2.33;;
7460;SDS011;6757;52.258;12.840;2023-08-06T00:35:54;5.10;;;2.25;;
7460;SDS011;6757;52.258;12.840;2023-08-06T00:38:21;5.40;;;2.30;;
7460;SDS011;6757;52.258;12.840;2023-08-06T00:40:49;5.00;;;1.83;;
7460;SDS011;6757;52.258;12.840;2023-08-06T00:43:16;3.80;;;1.95;;
7460;SDS011;6757;52.258;12.840;2023-08-06T00:45:43;4.93;;;2.50;;
7460;SDS011;6757;52.258;12.840;2023-08-06T00:48:10;4.68;;;2.13;;
7460;SDS011;6757;52.258;12.840;2023-08-06T00:50:37;5.78;;;2.10;;
7460;SDS011;6757;52.258;12.840;2023-08-06T00:53:04;5.80;;;2.70;;
7460;SDS011;6757;52.258;12.840;2023-08-06T00:55:31;4.63;;;2.38;;
7460;SDS011;6757;52.258;12.840;2023-08-06T00:58:00;4.20;;;2.25;;
7460;SDS011;6757;52.258;12.840;2023-08-06T01:00:28;7.45;;;2.28;;
7460;SDS011;6757;52.258;12.840;2023-08-06T01:02:55;3.33;;;2.00;;
7460;SDS011;6757;52.258;12.840;2023-08-06T01:05:23;3.88;;;2.22;;
7460;SDS011;6757;52.258;12.840;2023-08-06T01:07:51;4.50;;;2.25;;
7460;SDS011;6757;52.258;12.840;2023-08-06T01:10:38;6.30;;;2.28;;
7460;SDS011;6757;52.258;12.840;2023-08-06T01:13:18;5.70;;;2.63;;
7460;SDS011;6757;52.258;12.840;2023-08-06T01:15:52;7.05;;;2.40;;
7460;SDS011;6757;52.258;12.840;2023-08-06T01:18:23;5.65;;;2.58;;
7460;SDS011;6757;52.258;12.840;2023-08-06T01:20:51;7.72;;;2.53;;
7460;SDS011;6757;52.258;12.840;2023-08-06T01:23:18;4.10;;;2.45;;
7460;SDS011;6757;52.258;12.840;2023-08-06T01:25:47;4.95;;;2.47;;
7460;SDS011;6757;52.258;12.840;2023-08-06T01:28:32;6.18;;;2.60;;
7460;SDS011;6757;52.258;12.840;2023-08-06T01:31:07;6.10;;;2.63;;
7460;SDS011;6757;52.258;12.840;2023-08-06T01:33:43;7.35;;;2.88;;
7460;SDS011;6757;52.258;12.840;2023-08-06T01:36:13;6.30;;;2.70;;
7460;SDS011;6757;52.258;12.840;2023-08-06T01:38:43;5.63;;;2.78;;
7460;SDS011;6757;52.258;12.840;2023-08-06T01:41:10;5.93;;;2.65;;
7460;SDS011;6757;52.258;12.840;2023-08-06T01:43:37;4.18;;;2.42;;
7460;SDS011;6757;52.258;12.840;2023-08-06T01:46:04;5.85;;;2.35;;
7460;SDS011;6757;52.258;12.840;2023-08-06T01:48:32;9.75;;;2.83;;
7460;SDS011;6757;52.258;12.840;2023-08-06T01:50:59;4.05;;;2.42;;
7460;SDS011;6757;52.258;12.840;2023-08-06T01:53:27;6.72;;;2.47;;
7460;SDS011;6757;52.258;12.840;2023-08-06T01:55:54;4.35;;;2.42;;
7460;SDS011;6757;52.258;12.840;2023-08-06T01:58:21;6.50;;;2.60;;
7460;SDS011;6757;52.258;12.840;2023-08-06T02:00:48;4.13;;;2.33;;
7460;SDS011;6757;52.258;12.840;2023-08-06T02:03:14;8.02;;;2.50;;
7460;SDS011;6757;52.258;12.840;2023-08-06T02:05:42;7.22;;;2.63;;
7460;SDS011;6757;52.258;12.840;2023-08-06T02:08:09;7.63;;;2.75;;
7460;SDS011;6757;52.258;12.840;2023-08-06T02:10:37;7.22;;;2.60;;
7460;SDS011;6757;52.258;12.840;2023-08-06T02:13:04;5.32;;;2.65;;
7460;SDS011;6757;52.258;12.840;2023-08-06T02:15:31;5.30;;;2.63;;
7460;SDS011;6757;52.258;12.840;2023-08-06T02:17:58;5.07;;;2.30;;
7460;SDS011;6757;52.258;12.840;2023-08-06T02:20:25;5.72;;;2.45;;
7460;SDS011;6757;52.258;12.840;2023-08-06T02:22:51;3.45;;;2.35;;
7460;SDS011;6757;52.258;12.840;2023-08-06T02:25:18;5.47;;;2.15;;
7460;SDS011;6757;52.258;12.840;2023-08-06T02:27:47;4.45;;;2.30;;
7460;SDS011;6757;52.258;12.840;2023-08-06T02:30:14;5.65;;;2.35;;
7460;SDS011;6757;52.258;12.840;2023-08-06T02:32:41;6.07;;;2.67;;
7460;SDS011;6757;52.258;12.840;2023-08-06T02:35:08;5.38;;;2.05;;
7460;SDS011;6757;52.258;12.840;2023-08-06T02:37:35;5.55;;;2.65;;
7460;SDS011;6757;52.258;12.840;2023-08-06T02:40:03;5.38;;;2.40;;
7460;SDS011;6757;52.258;12.840;2023-08-06T02:42:30;5.80;;;2.47;;
7460;SDS011;6757;52.258;12.840;2023-08-06T02:44:59;4.95;;;2.35;;
7460;SDS011;6757;52.258;12.840;2023-08-06T02:47:26;3.88;;;2.20;;
7460;SDS011;6757;52.258;12.840;2023-08-06T02:49:52;5.30;;;2.40;;
7460;SDS011;6757;52.258;12.840;2023-08-06T02:52:19;6.85;;;2.60;;
7460;SDS011;6757;52.258;12.840;2023-08-06T02:54:46;5.78;;;2.47;;
7460;SDS011;6757;52.258;12.840;2023-08-06T02:57:13;4.30;;;2.40;;
7460;SDS011;6757;52.258;12.840;2023-08-06T02:59:40;4.28;;;2.15;;
7460;SDS011;6757;52.258;12.840;2023-08-06T03:02:08;4.72;;;2.58;;
7460;SDS011;6757;52.258;12.840;2023-08-06T03:04:35;6.85;;;2.70;;
7460;SDS011;6757;52.258;12.840;2023-08-06T03:07:02;5.43;;;2.65;;
7460;SDS011;6757;52.258;12.840;2023-08-06T03:09:29;4.68;;;2.50;;
7460;SDS011;6757;52.258;12.840;2023-08-06T03:11:56;6.07;;;2.53;;
7460;SDS011;6757;52.258;12.840;2023-08-06T03:14:23;5.00;;;2.38;;
7460;SDS011;6757;52.258;12.840;2023-08-06T03:16:50;6.10;;;2.45;;
7460;SDS011;6757;52.258;12.840;2023-08-06T03:19:18;7.60;;;2.95;;
7460;SDS011;6757;52.258;12.840;2023-08-06T03:21:45;7.22;;;2.90;;
7460;SDS011;6757;52.258;12.840;2023-08-06T03:24:13;6.55;;;2.83;;
7460;SDS011;6757;52.258;12.840;2023-08-06T03:26:40;5.72;;;2.38;;
7460;SDS011;6757;52.258;12.840;2023-08-06T03:29:07;6.05;;;2.72;;
7460;SDS011;6757;52.258;12.840;2023-08-06T03:31:34;5.28;;;2.78;;
7460;SDS011;6757;52.258;12.840;2023-08-06T03:34:01;6.97;;;2.75;;
7460;SDS011;6757;52.258;12.840;2023-08-06T03:36:29;6.80;;;2.58;;
7460;SDS011;6757;52.258;12.840;2023-08-06T03:38:56;6.32;;;2.70;;
7460;SDS011;6757;52.258;12.840;2023-08-06T03:41:23;7.15;;;2.83;;
7460;SDS011;6757;52.258;12.840;2023-08-06T03:43:50;6.15;;;2.70;;
7460;SDS011;6757;52.258;12.840;2023-08-06T03:46:17;5.57;;;2.42;;
7460;SDS011;6757;52.258;12.840;2023-08-06T03:48:43;6.75;;;2.58;;
7460;SDS011;6757;52.258;12.840;2023-08-06T03:51:10;6.82;;;2.70;;
7460;SDS011;6757;52.258;12.840;2023-08-06T03:53:39;5.93;;;2.60;;
7460;SDS011;6757;52.258;12.840;2023-08-06T03:56:06;4.03;;;2.22;;
7460;SDS011;6757;52.258;12.840;2023-08-06T03:58:33;7.75;;;2.92;;
7460;SDS011;6757;52.258;12.840;2023-08-06T04:01:00;8.15;;;2.83;;
7460;SDS011;6757;52.258;12.840;2023-08-06T04:03:28;5.68;;;2.22;;
7460;SDS011;6757;52.258;12.840;2023-08-06T04:05:55;8.77;;;2.75;;
7460;SDS011;6757;52.258;12.840;2023-08-06T04:08:22;6.47;;;2.65;;
7460;SDS011;6757;52.258;12.840;2023-08-06T04:10:50;6.95;;;2.72;;
7460;SDS011;6757;52.258;12.840;2023-08-06T04:13:18;8.13;;;2.88;;
7460;SDS011;6757;52.258;12.840;2023-08-06T04:15:46;6.60;;;2.70;;
7460;SDS011;6757;52.258;12.840;2023-08-06T04:18:13;6.45;;;2.53;;
7460;SDS011;6757;52.258;12.840;2023-08-06T04:20:43;6.38;;;2.67;;
7460;SDS011;6757;52.258;12.840;2023-08-06T04:23:10;5.97;;;2.83;;
7460;SDS011;6757;52.258;12.840;2023-08-06T04:25:37;6.43;;;2.55;;
7460;SDS011;6757;52.258;12.840;2023-08-06T04:28:06;6.07;;;2.83;;
7460;SDS011;6757;52.258;12.840;2023-08-06T04:30:33;7.93;;;3.03;;
7460;SDS011;6757;52.258;12.840;2023-08-06T04:33:00;6.57;;;2.92;;
7460;SDS011;6757;52.258;12.840;2023-08-06T04:35:27;7.55;;;2.85;;
7460;SDS011;6757;52.258;12.840;2023-08-06T04:37:54;5.47;;;2.67;;
7460;SDS011;6757;52.258;12.840;2023-08-06T04:40:21;8.07;;;3.00;;
7460;SDS011;6757;52.258;12.840;2023-08-06T04:42:48;7.38;;;3.15;;
7460;SDS011;6757;52.258;12.840;2023-08-06T04:45:16;7.90;;;3.13;;
7460;SDS011;6757;52.258;12.840;2023-08-06T04:47:43;8.23;;;2.90;;
7460;SDS011;6757;52.258;12.840;2023-08-06T04:50:10;7.65;;;2.65;;
7460;SDS011;6757;52.258;12.840;2023-08-06T04:52:37;5.93;;;2.80;;
7460;SDS011;6757;52.258;12.840;2023-08-06T04:55:04;7.18;;;3.35;;
7460;SDS011;6757;52.258;12.840;2023-08-06T04:57:32;6.35;;;2.80;;
7460;SDS011;6757;52.258;12.840;2023-08-06T04:59:59;7.78;;;3.03;;
7460;SDS011;6757;52.258;12.840;2023-08-06T05:02:27;6.97;;;3.15;;
7460;SDS011;6757;52.258;12.840;2023-08-06T05:04:54;5.43;;;3.03;;
7460;SDS011;6757;52.258;12.840;2023-08-06T05:07:21;9.70;;;2.95;;
7460;SDS011;6757;52.258;12.840;2023-08-06T05:09:48;6.90;;;2.83;;
7460;SDS011;6757;52.258;12.840;2023-08-06T05:12:15;7.35;;;2.72;;
7460;SDS011;6757;52.258;12.840;2023-08-06T05:14:42;10.02;;;3.40;;
7460;SDS011;6757;52.258;12.840;2023-08-06T05:17:09;7.88;;;2.88;;
7460;SDS011;6757;52.258;12.840;2023-08-06T05:19:37;7.88;;;3.10;;
7460;SDS011;6757;52.258;12.840;2023-08-06T05:22:05;8.02;;;3.22;;
7460;SDS011;6757;52.258;12.840;2023-08-06T05:24:31;7.90;;;3.15;;
7460;SDS011;6757;52.258;12.840;2023-08-06T05:26:58;6.05;;;2.78;;
7460;SDS011;6757;52.258;12.840;2023-08-06T05:29:25;6.47;;;3.15;;
7460;SDS011;6757;52.258;12.840;2023-08-06T05:31:52;9.52;;;3.30;;
7460;SDS011;6757;52.258;12.840;2023-08-06T05:34:19;6.63;;;3.10;;
7460;SDS011;6757;52.258;12.840;2023-08-06T05:36:48;11.07;;;3.33;;
7460;SDS011;6757;52.258;12.840;2023-08-06T05:39:15;7.88;;;3.28;;
7460;SDS011;6757;52.258;12.840;2023-08-06T05:41:41;7.47;;;2.97;;
7460;SDS011;6757;52.258;12.840;2023-08-06T05:44:08;5.05;;;2.60;;
7460;SDS011;6757;52.258;12.840;2023-08-06T05:46:35;7.30;;;2.92;;
7460;SDS011;6757;52.258;12.840;2023-08-06T05:49:02;8.80;;;3.47;;
7460;SDS011;6757;52.258;12.840;2023-08-06T05:51:30;8.32;;;3.53;;
7460;SDS011;6757;52.258;12.840;2023-08-06T05:53:58;9.68;;;3.40;;
7460;SDS011;6757;52.258;12.840;2023-08-06T05:56:25;8.38;;;3.10;;
7460;SDS011;6757;52.258;12.840;2023-08-06T05:58:52;7.28;;;2.85;;
7460;SDS011;6757;52.258;12.840;2023-08-06T06:01:19;7.35;;;3.00;;
7460;SDS011;6757;52.258;12.840;2023-08-06T06:03:46;8.50;;;3.38;;
7460;SDS011;6757;52.258;12.840;2023-08-06T06:06:13;8.40;;;3.67;;
7460;SDS011;6757;52.258;12.840;2023-08-06T06:08:40;9.38;;;3.40;;
7460;SDS011;6757;52.258;12.840;2023-08-06T06:11:08;7.90;;;3.20;;
7460;SDS011;6757;52.258;12.840;2023-08-06T06:13:35;8.35;;;3.55;;
7460;SDS011;6757;52.258;12.840;2023-08-06T06:16:02;9.25;;;3.50;;
7460;SDS011;6757;52.258;12.840;2023-08-06T06:18:30;8.45;;;3.38;;
7460;SDS011;6757;52.258;12.840;2023-08-06T06:20:57;7.63;;;3.22;;
7460;SDS011;6757;52.258;12.840;2023-08-06T06:23:24;8.75;;;3.35;;
7460;SDS011;6757;52.258;12.840;2023-08-06T06:25:51;9.98;;;3.85;;
7460;SDS011;6757;52.258;12.840;2023-08-06T06:28:19;7.95;;;3.00;;
7460;SDS011;6757;52.258;12.840;2023-08-06T06:30:46;7.45;;;3.15;;
7460;SDS011;6757;52.258;12.840;2023-08-06T06:33:14;6.38;;;2.90;;
7460;SDS011;6757;52.258;12.840;2023-08-06T06:35:41;7.10;;;3.20;;
7460;SDS011;6757;52.258;12.840;2023-08-06T06:38:08;6.30;;;3.15;;
7460;SDS011;6757;52.258;12.840;2023-08-06T06:40:35;8.77;;;3.15;;
7460;SDS011;6757;52.258;12.840;2023-08-06T06:43:02;8.98;;;3.20;;
7460;SDS011;6757;52.258;12.840;2023-08-06T06:45:30;7.95;;;3.10;;
7460;SDS011;6757;52.258;12.840;2023-08-06T06:47:57;7.05;;;2.90;;
7460;SDS011;6757;52.258;12.840;2023-08-06T06:50:24;8.05;;;3.40;;
7460;SDS011;6757;52.258;12.840;2023-08-06T06:52:51;8.30;;;3.47;;
7460;SDS011;6757;52.258;12.840;2023-08-06T06:55:20;8.93;;;3.47;;
7460;SDS011;6757;52.258;12.840;2023-08-06T06:57:54;10.23;;;3.45;;
7460;SDS011;6757;52.258;12.840;2023-08-06T07:00:21;9.55;;;3.75;;
7460;SDS011;6757;52.258;12.840;2023-08-06T07:02:49;9.65;;;3.67;;
7460;SDS011;6757;52.258;12.840;2023-08-06T07:05:17;9.02;;;3.85;;
7460;SDS011;6757;52.258;12.840;2023-08-06T07:07:44;10.05;;;3.83;;
7460;SDS011;6757;52.258;12.840;2023-08-06T07:10:11;9.20;;;3.67;;
7460;SDS011;6757;52.258;12.840;2023-08-06T07:12:38;9.48;;;3.72;;
7460;SDS011;6757;52.258;12.840;2023-08-06T07:17:32;10.18;;;3.78;;
7460;SDS011;6757;52.258;12.840;2023-08-06T07:20:01;8.88;;;3.65;;
7460;SDS011;6757;52.258;12.840;2023-08-06T07:22:29;9.60;;;3.83;;
7460;SDS011;6757;52.258;12.840;2023-08-06T07:24:56;12.20;;;3.83;;
7460;SDS011;6757;52.258;12.840;2023-08-06T07:27:23;9.57;;;3.92;;
7460;SDS011;6757;52.258;12.840;2023-08-06T07:29:51;9.55;;;3.92;;
7460;SDS011;6757;52.258;12.840;2023-08-06T07:32:18;10.35;;;4.15;;
7460;SDS011;6757;52.258;12.840;2023-08-06T07:34:45;10.95;;;3.67;;
7460;SDS011;6757;52.258;12.840;2023-08-06T07:37:13;11.65;;;4.57;;
7460;SDS011;6757;52.258;12.840;2023-08-06T07:39:40;12.10;;;4.63;;
7460;SDS011;6757;52.258;12.840;2023-08-06T07:42:07;9.70;;;3.78;;
7460;SDS011;6757;52.258;12.840;2023-08-06T07:44:34;13.13;;;4.93;;
7460;SDS011;6757;52.258;12.840;2023-08-06T07:47:01;10.80;;;3.88;;
7460;SDS011;6757;52.258;12.840;2023-08-06T07:49:28;11.35;;;4.38;;
7460;SDS011;6757;52.258;12.840;2023-08-06T07:51:55;11.00;;;4.07;;
7460;SDS011;6757;52.258;12.840;2023-08-06T07:54:24;10.93;;;4.13;;
7460;SDS011;6757;52.258;12.840;2023-08-06T07:56:50;10.75;;;4.00;;
7460;SDS011;6757;52.258;12.840;2023-08-06T07:59:17;8.27;;;3.65;;
7460;SDS011;6757;52.258;12.840;2023-08-06T08:01:44;10.50;;;4.20;;
7460;SDS011;6757;52.258;12.840;2023-08-06T08:04:11;7.65;;;3.60;;
7460;SDS011;6757;52.258;12.840;2023-08-06T08:06:38;10.27;;;3.92;;
7460;SDS011;6757;52.258;12.840;2023-08-06T08:09:05;7.78;;;3.58;;
7460;SDS011;6757;52.258;12.840;2023-08-06T08:11:34;9.27;;;3.72;;
7460;SDS011;6757;52.258;12.840;2023-08-06T08:14:01;8.75;;;3.17;;
7460;SDS011;6757;52.258;12.840;2023-08-06T08:16:28;10.70;;;3.70;;
7460;SDS011;6757;52.258;12.840;2023-08-06T08:18:55;11.38;;;4.00;;
7460;SDS011;6757;52.258;12.840;2023-08-06T08:21:22;8.60;;;3.78;;
7460;SDS011;6757;52.258;12.840;2023-08-06T08:23:50;9.35;;;3.80;;
7460;SDS011;6757;52.258;12.840;2023-08-06T08:26:17;10.70;;;4.00;;
7460;SDS011;6757;52.258;12.840;2023-08-06T08:28:45;10.95;;;4.15;;
7460;SDS011;6757;52.258;12.840;2023-08-06T08:31:12;9.60;;;3.60;;
7460;SDS011;6757;52.258;12.840;2023-08-06T08:33:40;7.65;;;3.55;;
7460;SDS011;6757;52.258;12.840;2023-08-06T08:36:07;10.45;;;3.80;;
7460;SDS011;6757;52.258;12.840;2023-08-06T08:38:34;9.20;;;3.85;;
7460;SDS011;6757;52.258;12.840;2023-08-06T08:41:01;8.80;;;3.63;;
7460;SDS011;6757;52.258;12.840;2023-08-06T08:43:28;8.40;;;3.17;;
7460;SDS011;6757;52.258;12.840;2023-08-06T08:45:57;11.05;;;4.05;;
7460;SDS011;6757;52.258;12.840;2023-08-06T08:48:28;6.70;;;3.15;;
7460;SDS011;6757;52.258;12.840;2023-08-06T08:50:55;9.45;;;3.47;;
7460;SDS011;6757;52.258;12.840;2023-08-06T08:53:22;10.27;;;3.60;;
7460;SDS011;6757;52.258;12.840;2023-08-06T08:55:51;8.05;;;3.70;;
7460;SDS011;6757;52.258;12.840;2023-08-06T08:58:19;9.85;;;4.00;;
7460;SDS011;6757;52.258;12.840;2023-08-06T09:00:46;9.60;;;4.18;;
7460;SDS011;6757;52.258;12.840;2023-08-06T09:03:15;8.32;;;3.42;;
7460;SDS011;6757;52.258;12.840;2023-08-06T09:05:44;7.03;;;3.25;;
7460;SDS011;6757;52.258;12.840;2023-08-06T09:08:11;8.32;;;3.38;;
7460;SDS011;6757;52.258;12.840;2023-08-06T09:10:44;8.75;;;3.47;;
7460;SDS011;6757;52.258;12.840;2023-08-06T09:13:14;10.45;;;3.85;;
7460;SDS011;6757;52.258;12.840;2023-08-06T09:15:42;10.20;;;3.60;;
7460;SDS011;6757;52.258;12.840;2023-08-06T09:18:10;11.00;;;3.70;;
7460;SDS011;6757;52.258;12.840;2023-08-06T09:20:39;7.00;;;3.33;;
7460;SDS011;6757;52.258;12.840;2023-08-06T09:23:09;7.68;;;3.15;;
7460;SDS011;6757;52.258;12.840;2023-08-06T09:25:37;7.78;;;3.13;;
7460;SDS011;6757;52.258;12.840;2023-08-06T09:28:06;6.78;;;2.88;;
7460;SDS011;6757;52.258;12.840;2023-08-06T09:30:33;9.60;;;3.67;;
7460;SDS011;6757;52.258;12.840;2023-08-06T09:33:03;7.50;;;3.22;;
7460;SDS011;6757;52.258;12.840;2023-08-06T09:35:30;8.10;;;3.40;;
7460;SDS011;6757;52.258;12.840;2023-08-06T09:38:06;6.68;;;3.20;;
7460;SDS011;6757;52.258;12.840;2023-08-06T09:40:35;10.23;;;3.25;;
7460;SDS011;6757;52.258;12.840;2023-08-06T09:43:02;9.40;;;3.30;;
7460;SDS011;6757;52.258;12.840;2023-08-06T09:45:31;10.05;;;3.97;;
7460;SDS011;6757;52.258;12.840;2023-08-06T09:48:00;10.25;;;3.67;;
7460;SDS011;6757;52.258;12.840;2023-08-06T09:50:30;8.65;;;3.50;;
7460;SDS011;6757;52.258;12.840;2023-08-06T09:52:59;10.50;;;3.67;;
7460;SDS011;6757;52.258;12.840;2023-08-06T09:55:28;8.02;;;3.50;;
7460;SDS011;6757;52.258;12.840;2023-08-06T09:57:55;8.90;;;3.38;;
7460;SDS011;6757;52.258;12.840;2023-08-06T10:00:22;8.25;;;3.35;;
7460;SDS011;6757;52.258;12.840;2023-08-06T10:02:50;11.15;;;3.75;;
7460;SDS011;6757;52.258;12.840;2023-08-06T10:05:20;8.57;;;3.30;;
7460;SDS011;6757;52.258;12.840;2023-08-06T10:07:47;9.00;;;3.72;;
7460;SDS011;6757;52.258;12.840;2023-08-06T10:10:16;9.25;;;3.50;;
7460;SDS011;6757;52.258;12.840;2023-08-06T10:12:47;10.50;;;4.00;;
7460;SDS011;6757;52.258;12.840;2023-08-06T10:15:17;8.05;;;3.60;;
7460;SDS011;6757;52.258;12.840;2023-08-06T10:17:47;8.30;;;3.17;;
7460;SDS011;6757;52.258;12.840;2023-08-06T10:20:18;7.65;;;3.25;;
7460;SDS011;6757;52.258;12.840;2023-08-06T10:22:59;8.57;;;3.53;;
7460;SDS011;6757;52.258;12.840;2023-08-06T10:25:30;9.10;;;3.58;;
7460;SDS011;6757;52.258;12.840;2023-08-06T10:28:00;6.65;;;2.92;;
7460;SDS011;6757;52.258;12.840;2023-08-06T10:33:56;9.00;;;3.63;;
7460;SDS011;6757;52.258;12.840;2023-08-06T10:36:23;10.02;;;3.90;;
7460;SDS011;6757;52.258;12.840;2023-08-06T10:38:53;10.93;;;4.10;;
7460;SDS011;6757;52.258;12.840;2023-08-06T10:41:27;7.75;;;3.53;;
7460;SDS011;6757;52.258;12.840;2023-08-06T10:46:33;9.10;;;3.53;;
7460;SDS011;6757;52.258;12.840;2023-08-06T10:49:01;8.48;;;3.30;;
7460;SDS011;6757;52.258;12.840;2023-08-06T10:51:29;7.93;;;3.47;;
7460;SDS011;6757;52.258;12.840;2023-08-06T10:53:56;7.85;;;3.47;;
7460;SDS011;6757;52.258;12.840;2023-08-06T10:56:24;7.72;;;3.20;;
7460;SDS011;6757;52.258;12.840;2023-08-06T11:02:10;5.40;;;2.78;;
7460;SDS011;6757;52.258;12.840;2023-08-06T11:04:37;8.57;;;3.80;;
7460;SDS011;6757;52.258;12.840;2023-08-06T11:07:06;7.20;;;3.20;;
7460;SDS011;6757;52.258;12.840;2023-08-06T11:09:33;8.65;;;3.63;;
7460;SDS011;6757;52.258;12.840;2023-08-06T11:12:00;6.78;;;3.30;;
7460;SDS011;6757;52.258;12.840;2023-08-06T11:14:27;9.27;;;3.15;;
7460;SDS011;6757;52.258;12.840;2023-08-06T11:16:58;8.63;;;3.67;;
7460;SDS011;6757;52.258;12.840;2023-08-06T11:19:24;8.18;;;3.35;;
7460;SDS011;6757;52.258;12.840;2023-08-06T11:21:51;8.70;;;3.15;;
7460;SDS011;6757;52.258;12.840;2023-08-06T11:24:17;7.10;;;3.40;;
7460;SDS011;6757;52.258;12.840;2023-08-06T11:26:45;7.80;;;3.28;;
7460;SDS011;6757;52.258;12.840;2023-08-06T11:29:12;6.78;;;3.10;;
7460;SDS011;6757;52.258;12.840;2023-08-06T11:31:42;7.70;;;3.00;;
7460;SDS011;6757;52.258;12.840;2023-08-06T11:34:11;8.88;;;3.25;;
7460;SDS011;6757;52.258;12.840;2023-08-06T11:36:39;9.38;;;4.00;;
7460;SDS011;6757;52.258;12.840;2023-08-06T11:39:07;7.32;;;3.13;;
7460;SDS011;6757;52.258;12.840;2023-08-06T11:41:35;8.07;;;3.50;;
7460;SDS011;6757;52.258;12.840;2023-08-06T11:44:04;7.20;;;3.28;;
7460;SDS011;6757;52.258;12.840;2023-08-06T11:49:18;5.97;;;2.67;;
7460;SDS011;6757;52.258;12.840;2023-08-06T11:51:47;8.95;;;3.33;;
7460;SDS011;6757;52.258;12.840;2023-08-06T11:54:14;8.50;;;3.42;;
7460;SDS011;6757;52.258;12.840;2023-08-06T11:56:41;5.78;;;2.85;;
7460;SDS011;6757;52.258;12.840;2023-08-06T11:59:08;6.72;;;2.92;;
7460;SDS011;6757;52.258;12.840;2023-08-06T12:01:35;9.43;;;3.33;;
7460;SDS011;6757;52.258;12.840;2023-08-06T12:04:04;10.43;;;3.95;;
7460;SDS011;6757;52.258;12.840;2023-08-06T12:06:41;9.15;;;3.90;;
7460;SDS011;6757;52.258;12.840;2023-08-06T12:09:09;6.25;;;3.15;;
7460;SDS011;6757;52.258;12.840;2023-08-06T12:11:36;8.70;;;3.85;;
7460;SDS011;6757;52.258;12.840;2023-08-06T12:14:03;8.75;;;3.65;;
7460;SDS011;6757;52.258;12.840;2023-08-06T12:16:30;7.97;;;3.35;;
7460;SDS011;6757;52.258;12.840;2023-08-06T12:18:56;7.95;;;3.17;;
7460;SDS011;6757;52.258;12.840;2023-08-06T12:21:23;7.15;;;3.30;;
7460;SDS011;6757;52.258;12.840;2023-08-06T12:23:52;7.72;;;3.20;;
7460;SDS011;6757;52.258;12.840;2023-08-06T12:26:18;9.02;;;3.63;;
7460;SDS011;6757;52.258;12.840;2023-08-06T12:28:45;6.60;;;3.20;;
7460;SDS011;6757;52.258;12.840;2023-08-06T12:31:14;6.88;;;3.20;;
7460;SDS011;6757;52.258;12.840;2023-08-06T12:33:41;9.38;;;3.55;;
7460;SDS011;6757;52.258;12.840;2023-08-06T12:36:08;9.43;;;3.60;;
7460;SDS011;6757;52.258;12.840;2023-08-06T12:38:35;7.55;;;3.40;;
7460;SDS011;6757;52.258;12.840;2023-08-06T12:41:03;9.30;;;3.40;;
7460;SDS011;6757;52.258;12.840;2023-08-06T12:43:30;8.70;;;3.40;;
7460;SDS011;6757;52.258;12.840;2023-08-06T12:45:57;6.85;;;3.05;;
7460;SDS011;6757;52.258;12.840;2023-08-06T12:48:24;8.27;;;3.28;;
7460;SDS011;6757;52.258;12.840;2023-08-06T12:50:51;7.13;;;3.35;;
7460;SDS011;6757;52.258;12.840;2023-08-06T12:53:18;10.63;;;3.63;;
7460;SDS011;6757;52.258;12.840;2023-08-06T12:55:46;9.60;;;4.07;;
7460;SDS011;6757;52.258;12.840;2023-08-06T12:58:14;11.23;;;4.13;;
7460;SDS011;6757;52.258;12.840;2023-08-06T13:00:41;9.88;;;3.47;;
7460;SDS011;6757;52.258;12.840;2023-08-06T13:03:08;8.05;;;3.55;;
7460;SDS011;6757;52.258;12.840;2023-08-06T13:05:35;8.05;;;3.50;;
7460;SDS011;6757;52.258;12.840;2023-08-06T13:08:02;9.27;;;3.53;;
7460;SDS011;6757;52.258;12.840;2023-08-06T13:10:29;9.38;;;3.50;;
7460;SDS011;6757;52.258;12.840;2023-08-06T13:12:56;9.50;;;3.72;;
7460;SDS011;6757;52.258;12.840;2023-08-06T13:15:25;8.65;;;3.42;;
7460;SDS011;6757;52.258;12.840;2023-08-06T13:17:52;7.13;;;2.90;;
7460;SDS011;6757;52.258;12.840;2023-08-06T13:20:18;4.35;;;2.25;;
7460;SDS011;6757;52.258;12.840;2023-08-06T13:22:45;4.85;;;2.40;;
7460;SDS011;6757;52.258;12.840;2023-08-06T13:25:15;5.80;;;2.78;;
7460;SDS011;6757;52.258;12.840;2023-08-06T13:27:42;6.60;;;2.25;;
7460;SDS011;6757;52.258;12.840;2023-08-06T13:30:11;3.50;;;1.95;;
7460;SDS011;6757;52.258;12.840;2023-08-06T13:32:39;5.00;;;2.05;;
7460;SDS011;6757;52.258;12.840;2023-08-06T13:35:06;2.47;;;1.70;;
7460;SDS011;6757;52.258;12.840;2023-08-06T13:37:33;3.05;;;1.80;;
7460;SDS011;6757;52.258;12.840;2023-08-06T13:40:00;4.20;;;2.00;;
7460;SDS011;6757;52.258;12.840;2023-08-06T13:42:27;5.63;;;1.95;;
7460;SDS011;6757;52.258;12.840;2023-08-06T13:44:54;2.55;;;1.77;;
7460;SDS011;6757;52.258;12.840;2023-08-06T13:47:27;3.67;;;1.95;;
7460;SDS011;6757;52.258;12.840;2023-08-06T13:49:55;3.10;;;1.75;;
7460;SDS011;6757;52.258;12.840;2023-08-06T13:52:22;3.35;;;2.00;;
7460;SDS011;6757;52.258;12.840;2023-08-06T13:54:51;2.33;;;1.73;;
7460;SDS011;6757;52.258;12.840;2023-08-06T13:57:18;4.20;;;2.28;;
7460;SDS011;6757;52.258;12.840;2023-08-06T13:59:45;4.82;;;2.45;;
7460;SDS011;6757;52.258;12.840;2023-08-06T14:02:12;6.25;;;2.60;;
7460;SDS011;6757;52.258;12.840;2023-08-06T14:04:39;4.97;;;2.25;;
7460;SDS011;6757;52.258;12.840;2023-08-06T14:07:07;4.55;;;2.15;;
7460;SDS011;6757;52.258;12.840;2023-08-06T14:09:34;4.00;;;2.42;;
7460;SDS011;6757;52.258;12.840;2023-08-06T14:12:01;5.13;;;2.35;;
7460;SDS011;6757;52.258;12.840;2023-08-06T14:14:29;4.93;;;2.30;;
7460;SDS011;6757;52.258;12.840;2023-08-06T14:16:56;7.57;;;2.75;;
7460;SDS011;6757;52.258;12.840;2023-08-06T14:19:23;4.57;;;2.35;;
7460;SDS011;6757;52.258;12.840;2023-08-06T14:21:50;5.35;;;2.55;;
7460;SDS011;6757;52.258;12.840;2023-08-06T14:24:18;5.43;;;2.40;;
7460;SDS011;6757;52.258;12.840;2023-08-06T14:26:45;6.72;;;2.97;;
7460;SDS011;6757;52.258;12.840;2023-08-06T14:29:12;6.18;;;2.58;;
7460;SDS011;6757;52.258;12.840;2023-08-06T14:31:39;5.32;;;2.85;;
7460;SDS011;6757;52.258;12.840;2023-08-06T14:34:06;7.72;;;3.00;;
7460;SDS011;6757;52.258;12.840;2023-08-06T14:36:33;7.20;;;2.97;;
7460;SDS011;6757;52.258;12.840;2023-08-06T14:39:00;6.07;;;2.85;;
7460;SDS011;6757;52.258;12.840;2023-08-06T14:41:28;9.27;;;3.13;;
7460;SDS011;6757;52.258;12.840;2023-08-06T14:43:55;8.35;;;3.00;;
7460;SDS011;6757;52.258;12.840;2023-08-06T14:46:22;8.98;;;3.28;;
7460;SDS011;6757;52.258;12.840;2023-08-06T14:48:49;8.23;;;3.42;;
7460;SDS011;6757;52.258;12.840;2023-08-06T14:51:16;8.02;;;3.00;;
7460;SDS011;6757;52.258;12.840;2023-08-06T14:53:44;6.95;;;2.72;;
7460;SDS011;6757;52.258;12.840;2023-08-06T14:56:11;7.43;;;3.45;;
7460;SDS011;6757;52.258;12.840;2023-08-06T14:58:39;6.95;;;3.03;;
7460;SDS011;6757;52.258;12.840;2023-08-06T15:01:06;7.75;;;3.00;;
7460;SDS011;6757;52.258;12.840;2023-08-06T15:03:34;7.47;;;3.30;;
7460;SDS011;6757;52.258;12.840;2023-08-06T15:06:00;10.65;;;3.72;;
7460;SDS011;6757;52.258;12.840;2023-08-06T15:08:27;8.45;;;3.40;;
7460;SDS011;6757;52.258;12.840;2023-08-06T15:10:54;8.93;;;3.83;;
7460;SDS011;6757;52.258;12.840;2023-08-06T15:13:21;8.27;;;3.95;;
7460;SDS011;6757;52.258;12.840;2023-08-06T15:15:49;11.00;;;4.57;;
7460;SDS011;6757;52.258;12.840;2023-08-06T15:18:16;10.70;;;4.50;;